Time,TemperatureF,DewpointF,PressureIn,WindDirection,WindDirectionDegrees,WindSpeedMPH,WindSpeedGustMPH,Humidity,HourlyPrecipIn,Conditions,Clouds,dailyrainin,SoftwareType,DateUTC
2013-09-05 00:12:00,47.0,39.0,-100.00,SE,143,10.0,21.0,73,-99.99,,,-99.99,,2013-09-05 08:12:00,
2013-09-05 00:21:00,47.0,39.0,-100.00,SE,143,10.0,21.0,73,-99.99,,,-99.99,,2013-09-05 08:21:00,
2013-09-05 00:32:00,47.0,39.0,-100.00,SE,143,10.0,21.0,73,-99.99,,,-99.99,,2013-09-05 08:32:00,
2013-09-05 00:52:00,47.0,47.0,-100.00,SSE,148,12.0,24.0,100,-99.99,,,-99.99,,2013-09-05 08:52:00,
2013-09-05 01:11:00,46.0,37.0,-100.00,SE,134,8.0,20.0,72,-99.99,,,-99.99,,2013-09-05 09:11:00,
2013-09-05 01:22:00,46.0,38.0,-100.00,SE,130,12.0,23.0,74,-99.99,,,-99.99,,2013-09-05 09:22:00,
2013-09-05 01:43:00,46.0,37.0,-100.00,SE,135,8.0,21.0,71,-99.99,,,-99.99,,2013-09-05 09:43:00,
2013-09-05 01:51:00,46.0,38.0,-100.00,ESE,120,6.0,19.0,73,-99.99,,,-99.99,,2013-09-05 09:51:00,
2013-09-05 01:53:00,46.0,37.0,-100.00,SE,135,8.0,21.0,71,-99.99,,,-99.99,,2013-09-05 09:53:00,
2013-09-05 02:12:00,46.0,38.0,-100.00,ESE,119,9.0,21.0,74,-99.99,,,-99.99,,2013-09-05 10:12:00,
2013-09-05 02:23:00,46.0,38.0,-100.00,ESE,120,6.0,19.0,73,-99.99,,,-99.99,,2013-09-05 10:23:00,
2013-09-05 02:32:00,46.0,38.0,-100.00,ESE,120,6.0,19.0,73,-99.99,,,-99.99,,2013-09-05 10:32:00,
2013-09-05 02:42:00,46.0,38.0,-100.00,ESE,120,6.0,19.0,73,-99.99,,,-99.99,,2013-09-05 10:42:00,
2013-09-05 03:12:00,46.0,37.0,-100.00,ESE,123,6.0,14.0,72,-99.99,,,-99.99,,2013-09-05 11:12:00,
2013-09-05 03:21:00,46.0,37.0,-100.00,SE,135,4.0,12.0,70,-99.99,,,-99.99,,2013-09-05 11:21:00,
2013-09-05 03:42:00,46.0,37.0,-100.00,SSE,149,6.0,18.0,70,-99.99,,,-99.99,,2013-09-05 11:42:00,
2013-09-05 03:52:00,45.0,45.0,-100.00,ESE,106,6.0,20.0,100,-99.99,,,-99.99,,2013-09-05 11:52:00,
2013-09-05 04:12:00,45.0,38.0,-100.00,ESE,114,11.0,21.0,76,-99.99,,,-99.99,,2013-09-05 12:12:00,
2013-09-05 04:21:00,45.0,38.0,-100.00,ESE,114,11.0,21.0,76,-99.99,,,-99.99,,2013-09-05 12:21:00,
2013-09-05 04:32:00,45.0,38.0,-100.00,ESE,114,11.0,21.0,76,-99.99,,,-99.99,,2013-09-05 12:32:00,
2013-09-05 04:51:00,45.0,37.0,-100.00,ESE,116,14.0,35.0,73,-99.99,,,-99.99,,2013-09-05 12:51:00,
2013-09-05 04:52:00,45.0,36.0,-100.00,ESE,119,14.0,35.0,71,-99.99,,,-99.99,,2013-09-05 12:52:00,
2013-09-05 05:12:00,46.0,37.0,-100.00,ESE,119,17.0,35.0,71,-99.99,,,-99.99,,2013-09-05 13:12:00,
2013-09-05 05:21:00,45.0,37.0,-100.00,ESE,116,14.0,35.0,73,-99.99,,,-99.99,,2013-09-05 13:21:00,
2013-09-05 05:42:00,45.0,37.0,-100.00,ESE,116,14.0,35.0,73,-99.99,,,-99.99,,2013-09-05 13:42:00,
2013-09-05 06:22:00,45.0,37.0,-100.00,ESE,119,12.0,27.0,74,-99.99,,,-99.99,,2013-09-05 14:22:00,
2013-09-05 06:32:00,45.0,37.0,-100.00,ESE,119,12.0,27.0,74,-99.99,,,-99.99,,2013-09-05 14:32:00,
2013-09-05 06:42:00,45.0,37.0,-100.00,ESE,119,12.0,27.0,74,-99.99,,,-99.99,,2013-09-05 14:42:00,
2013-09-05 06:52:00,46.0,36.0,-100.00,SE,131,14.0,31.0,68,-99.99,,,-99.99,,2013-09-05 14:52:00,
2013-09-05 07:02:00,46.0,36.0,-100.00,SE,131,14.0,31.0,68,-99.99,,,-99.99,,2013-09-05 15:02:00,
2013-09-05 07:11:00,46.0,36.0,-100.00,SE,131,14.0,31.0,68,-99.99,,,-99.99,,2013-09-05 15:11:00,
2013-09-05 07:22:00,46.0,36.0,-100.00,SE,132,17.0,32.0,67,-99.99,,,-99.99,,2013-09-05 15:22:00,
2013-09-05 07:43:00,46.0,36.0,-100.00,SE,137,14.0,37.0,69,-99.99,,,-99.99,,2013-09-05 15:43:00,
2013-09-05 07:54:00,46.0,36.0,-100.00,SE,137,17.0,33.0,68,-99.99,,,-99.99,,2013-09-05 15:54:00,
2013-09-05 08:13:00,46.0,37.0,-100.00,SE,133,12.0,31.0,71,-99.99,,,-99.99,,2013-09-05 16:13:00,
2013-09-05 08:24:00,46.0,37.0,-100.00,SE,133,12.0,31.0,71,-99.99,,,-99.99,,2013-09-05 16:24:00,
2013-09-05 08:43:00,44.0,37.0,-100.00,ESE,122,14.0,33.0,77,-99.99,,,-99.99,,2013-09-05 16:43:00,
2013-09-05 08:54:00,44.0,37.0,-100.00,ESE,122,14.0,33.0,77,-99.99,,,-99.99,,2013-09-05 16:54:00,
2013-09-05 09:12:00,44.0,38.0,-100.00,ESE,114,17.0,39.0,78,-99.99,,,-99.99,,2013-09-05 17:12:00,
2013-09-05 09:23:00,44.0,37.0,-100.00,ESE,114,17.0,35.0,77,-99.99,,,-99.99,,2013-09-05 17:23:00,
2013-09-05 09:43:00,45.0,37.0,-100.00,SE,128,14.0,35.0,74,-99.99,,,-99.99,,2013-09-05 17:43:00,
2013-09-05 09:52:00,45.0,37.0,-100.00,SE,127,12.0,34.0,74,-99.99,,,-99.99,,2013-09-05 17:52:00,
2013-09-05 10:02:00,45.0,37.0,-100.00,SE,127,12.0,34.0,74,-99.99,,,-99.99,,2013-09-05 18:02:00,
2013-09-05 10:12:00,45.0,37.0,-100.00,SE,127,12.0,34.0,74,-99.99,,,-99.99,,2013-09-05 18:12:00,
2013-09-05 10:21:00,45.0,37.0,-100.00,SE,127,8.0,29.0,73,-99.99,,,-99.99,,2013-09-05 18:21:00,
2013-09-05 10:32:00,45.0,37.0,-100.00,SE,127,8.0,29.0,73,-99.99,,,-99.99,,2013-09-05 18:32:00,
2013-09-05 10:52:00,46.0,37.0,-100.00,SSE,148,14.0,32.0,70,-99.99,,,-99.99,,2013-09-05 18:52:00,
2013-09-05 11:11:00,46.0,36.0,-100.00,SSE,151,16.0,33.0,67,-99.99,,,-99.99,,2013-09-05 19:11:00,
2013-09-05 11:21:00,46.0,36.0,-100.00,SSE,154,10.0,32.0,68,-99.99,,,-99.99,,2013-09-05 19:21:00,
2013-09-05 11:42:00,46.0,36.0,-100.00,SE,137,13.0,29.0,69,-99.99,,,-99.99,,2013-09-05 19:42:00,
2013-09-05 11:52:00,47.0,37.0,-100.00,SE,131,10.0,31.0,67,-99.99,,,-99.99,,2013-09-05 19:52:00,
2013-09-05 12:11:00,47.0,35.0,-100.00,SSE,156,13.0,27.0,64,-99.99,,,-99.99,,2013-09-05 20:11:00,
2013-09-05 12:22:00,48.0,37.0,-100.00,SE,135,14.0,27.0,65,-99.99,,,-99.99,,2013-09-05 20:22:00,
2013-09-05 12:42:00,49.0,37.0,-100.00,SE,131,12.0,31.0,62,-99.99,,,-99.99,,2013-09-05 20:42:00,
2013-09-05 12:52:00,49.0,37.0,-100.00,SE,139,10.0,31.0,63,-99.99,,,-99.99,,2013-09-05 20:52:00,
2013-09-05 13:02:00,49.0,37.0,-100.00,SE,139,10.0,31.0,63,-99.99,,,-99.99,,2013-09-05 21:02:00,
2013-09-05 13:12:00,49.0,37.0,-100.00,SE,139,10.0,31.0,63,-99.99,,,-99.99,,2013-09-05 21:12:00,
2013-09-05 13:21:00,51.0,38.0,-100.00,SE,129,10.0,37.0,61,-99.99,,,-99.99,,2013-09-05 21:21:00,
2013-09-05 13:53:00,50.0,38.0,-100.00,SE,138,8.0,29.0,62,-99.99,,,-99.99,,2013-09-05 21:53:00,
2013-09-05 14:13:00,52.0,38.0,-100.00,SSE,162,12.0,32.0,59,-99.99,,,-99.99,,2013-09-05 22:13:00,
2013-09-05 14:21:00,52.0,38.0,-100.00,SSE,165,13.0,27.0,59,-99.99,,,-99.99,,2013-09-05 22:21:00,
2013-09-05 14:24:00,51.0,38.0,-100.00,SE,136,9.0,28.0,60,-99.99,,,-99.99,,2013-09-05 22:24:00,
2013-09-05 14:43:00,51.0,38.0,-100.00,SSE,158,6.0,21.0,60,-99.99,,,-99.99,,2013-09-05 22:43:00,
2013-09-05 14:53:00,52.0,38.0,-100.00,SSE,165,13.0,27.0,59,-99.99,,,-99.99,,2013-09-05 22:53:00,
2013-09-05 15:02:00,52.0,38.0,-100.00,SSE,165,13.0,27.0,59,-99.99,,,-99.99,,2013-09-05 23:02:00,
2013-09-05 15:12:00,52.0,38.0,-100.00,SSE,165,13.0,27.0,59,-99.99,,,-99.99,,2013-09-05 23:12:00,
2013-09-05 15:42:00,53.0,39.0,-100.00,SE,127,12.0,31.0,59,-99.99,,,-99.99,,2013-09-05 23:42:00,
2013-09-05 15:53:00,53.0,39.0,-100.00,SE,127,12.0,31.0,59,-99.99,,,-99.99,,2013-09-05 23:53:00,
2013-09-05 16:01:00,53.0,39.0,-100.00,SE,127,12.0,31.0,59,-99.99,,,-99.99,,2013-09-06 00:01:00,
2013-09-05 16:22:00,51.0,37.0,-100.00,SSE,158,10.0,23.0,59,-99.99,,,-99.99,,2013-09-06 00:22:00,
2013-09-05 16:42:00,51.0,38.0,-100.00,SSE,168,11.0,26.0,60,-99.99,,,-99.99,,2013-09-06 00:42:00,
2013-09-05 16:52:00,51.0,38.0,-100.00,SSE,168,11.0,26.0,60,-99.99,,,-99.99,,2013-09-06 00:52:00,
2013-09-05 17:01:00,51.0,38.0,-100.00,SSE,168,11.0,26.0,60,-99.99,,,-99.99,,2013-09-06 01:01:00,
2013-09-05 17:22:00,52.0,37.0,-100.00,South,169,8.0,26.0,57,-99.99,,,-99.99,,2013-09-06 01:22:00,
2013-09-05 17:32:00,52.0,37.0,-100.00,South,169,8.0,26.0,57,-99.99,,,-99.99,,2013-09-06 01:32:00,
2013-09-05 17:42:00,52.0,37.0,-100.00,South,169,8.0,26.0,57,-99.99,,,-99.99,,2013-09-06 01:42:00,
2013-09-05 18:42:00,51.0,37.0,-100.00,SE,137,10.0,24.0,59,-99.99,,,-99.99,,2013-09-06 02:42:00,
2013-09-05 18:52:00,50.0,37.0,-100.00,SSE,151,8.0,24.0,60,-99.99,,,-99.99,,2013-09-06 02:52:00,
2013-09-05 19:02:00,50.0,37.0,-100.00,SSE,151,8.0,24.0,60,-99.99,,,-99.99,,2013-09-06 03:02:00,
2013-09-05 19:11:00,50.0,37.0,-100.00,SSE,151,8.0,24.0,60,-99.99,,,-99.99,,2013-09-06 03:11:00,
2013-09-05 19:55:00,48.0,36.0,-100.00,SE,127,12.0,32.0,64,-99.99,,,-99.99,,2013-09-06 03:55:00,
2013-09-05 20:04:00,48.0,36.0,-100.00,SE,127,12.0,32.0,64,-99.99,,,-99.99,,2013-09-06 04:04:00,
2013-09-05 20:13:00,48.0,36.0,-100.00,SE,127,12.0,32.0,64,-99.99,,,-99.99,,2013-09-06 04:13:00,
2013-09-05 20:23:00,47.0,37.0,-100.00,ESE,120,14.0,32.0,69,-99.99,,,-99.99,,2013-09-06 04:23:00,
2013-09-05 20:54:00,47.0,38.0,-100.00,ESE,103,11.0,32.0,71,-99.99,,,-99.99,,2013-09-06 04:54:00,
2013-09-05 21:03:00,47.0,38.0,-100.00,ESE,103,11.0,32.0,71,-99.99,,,-99.99,,2013-09-06 05:03:00,
2013-09-05 21:12:00,47.0,38.0,-100.00,ESE,103,11.0,32.0,71,-99.99,,,-99.99,,2013-09-06 05:12:00,
2013-09-05 21:23:00,46.0,37.0,-100.00,SSE,148,10.0,26.0,72,-99.99,,,-99.99,,2013-09-06 05:23:00,
2013-09-05 21:42:00,46.0,38.0,-100.00,WNW,289,4.0,23.0,73,-99.99,,,-99.99,,2013-09-06 05:42:00,
2013-09-05 21:52:00,46.0,38.0,-100.00,WNW,289,4.0,23.0,73,-99.99,,,-99.99,,2013-09-06 05:52:00,
2013-09-05 22:11:00,46.0,37.0,-100.00,SSW,201,0.0,9.0,71,-99.99,,,-99.99,,2013-09-06 06:11:00,
2013-09-05 22:21:00,46.0,37.0,-100.00,SSW,201,0.0,9.0,71,-99.99,,,-99.99,,2013-09-06 06:21:00,
2013-09-05 22:42:00,46.0,37.0,-100.00,SSE,162,2.0,10.0,71,-99.99,,,-99.99,,2013-09-06 06:42:00,
2013-09-05 22:52:00,47.0,37.0,-100.00,SW,231,1.0,10.0,69,-99.99,,,-99.99,,2013-09-06 06:52:00,
2013-09-05 22:53:00,46.0,37.0,-100.00,SSE,162,2.0,10.0,71,-99.99,,,-99.99,,2013-09-06 06:53:00,
2013-09-05 23:01:00,46.0,37.0,-100.00,SSE,162,2.0,10.0,71,-99.99,,,-99.99,,2013-09-06 07:01:00,
2013-09-05 23:23:00,47.0,37.0,-100.00,SW,231,1.0,10.0,69,-99.99,,,-99.99,,2013-09-06 07:23:00,
2013-09-05 23:32:00,47.0,37.0,-100.00,SW,231,1.0,10.0,69,-99.99,,,-99.99,,2013-09-06 07:32:00,
2013-09-05 23:42:00,47.0,37.0,-100.00,SW,231,1.0,10.0,69,-99.99,,,-99.99,,2013-09-06 07:42:00,